sensor_id;sensor_type;location;lat;lon;timestamp;temperature;humidity
15636;DHT22;7917;50.818;6.972;2023-06-10T00:00:46;17.90;1.00
15636;DHT22;7917;50.818;6.972;2023-06-10T00:03:13;17.90;1.00
15636;DHT22;7917;50.818;6.972;2023-06-10T00:05:40;17.90;1.00
15636;DHT22;7917;50.818;6.972;2023-06-10T00:08:12;17.80;1.00
15636;DHT22;7917;50.818;6.972;2023-06-10T00:10:45;17.60;1.00
15636;DHT22;7917;50.818;6.972;2023-06-10T00:13:15;17.60;1.00
15636;DHT22;7917;50.818;6.972;2023-06-10T00:15:45;17.50;1.00
15636;DHT22;7917;50.818;6.972;2023-06-10T00:18:12;17.50;22.00
15636;DHT22;7917;50.818;6.972;2023-06-10T00:20:40;17.50;99.90
15636;DHT22;7917;50.818;6.972;2023-06-10T00:23:08;17.50;99.90
15636;DHT22;7917;50.818;6.972;2023-06-10T00:25:36;17.40;99.90
15636;DHT22;7917;50.818;6.972;2023-06-10T00:28:03;17.40;1.00
15636;DHT22;7917;50.818;6.972;2023-06-10T00:30:30;17.40;1.00
15636;DHT22;7917;50.818;6.972;2023-06-10T00:32:57;17.30;1.00
15636;DHT22;7917;50.818;6.972;2023-06-10T00:35:24;17.30;1.00
15636;DHT22;7917;50.818;6.972;2023-06-10T00:37:51;17.30;1.00
15636;DHT22;7917;50.818;6.972;2023-06-10T00:40:18;17.20;1.00
15636;DHT22;7917;50.818;6.972;2023-06-10T00:42:46;17.10;1.00
15636;DHT22;7917;50.818;6.972;2023-06-10T00:45:13;17.10;38.00
15636;DHT22;7917;50.818;6.972;2023-06-10T00:47:40;17.00;99.90
15636;DHT22;7917;50.818;6.972;2023-06-10T00:50:08;17.00;99.90
15636;DHT22;7917;50.818;6.972;2023-06-10T00:52:35;17.00;99.90
15636;DHT22;7917;50.818;6.972;2023-06-10T00:55:03;16.90;99.90
15636;DHT22;7917;50.818;6.972;2023-06-10T00:57:34;16.80;99.90
15636;DHT22;7917;50.818;6.972;2023-06-10T01:00:02;16.80;1.00
15636;DHT22;7917;50.818;6.972;2023-06-10T01:02:33;16.80;1.00
15636;DHT22;7917;50.818;6.972;2023-06-10T01:05:00;16.70;1.00
15636;DHT22;7917;50.818;6.972;2023-06-10T01:07:31;16.70;1.00
15636;DHT22;7917;50.818;6.972;2023-06-10T01:10:04;16.70;1.00
15636;DHT22;7917;50.818;6.972;2023-06-10T01:12:34;16.60;1.00
15636;DHT22;7917;50.818;6.972;2023-06-10T01:15:05;16.60;1.00
15636;DHT22;7917;50.818;6.972;2023-06-10T01:17:33;16.60;82.30
15636;DHT22;7917;50.818;6.972;2023-06-10T01:20:02;16.50;99.90
15636;DHT22;7917;50.818;6.972;2023-06-10T01:22:58;16.50;99.90
15636;DHT22;7917;50.818;6.972;2023-06-10T01:25:27;16.50;1.00
15636;DHT22;7917;50.818;6.972;2023-06-10T01:27:57;16.50;99.90
15636;DHT22;7917;50.818;6.972;2023-06-10T01:30:28;16.50;99.90
15636;DHT22;7917;50.818;6.972;2023-06-10T01:32:58;16.60;1.00
15636;DHT22;7917;50.818;6.972;2023-06-10T01:35:27;16.50;1.00
15636;DHT22;7917;50.818;6.972;2023-06-10T01:37:58;16.50;1.00
15636;DHT22;7917;50.818;6.972;2023-06-10T01:40:26;16.50;21.50
15636;DHT22;7917;50.818;6.972;2023-06-10T01:42:53;16.40;33.50
15636;DHT22;7917;50.818;6.972;2023-06-10T01:45:20;16.30;99.90
15636;DHT22;7917;50.818;6.972;2023-06-10T01:47:47;16.30;99.90
15636;DHT22;7917;50.818;6.972;2023-06-10T01:50:14;16.20;1.00
15636;DHT22;7917;50.818;6.972;2023-06-10T01:52:42;16.10;1.00
15636;DHT22;7917;50.818;6.972;2023-06-10T01:55:10;16.10;1.00
15636;DHT22;7917;50.818;6.972;2023-06-10T01:57:37;16.00;1.00
15636;DHT22;7917;50.818;6.972;2023-06-10T02:00:05;16.00;99.90
15636;DHT22;7917;50.818;6.972;2023-06-10T02:02:32;16.00;7.40
15636;DHT22;7917;50.818;6.972;2023-06-10T02:04:59;15.90;1.00
15636;DHT22;7917;50.818;6.972;2023-06-10T02:07:26;16.00;99.90
15636;DHT22;7917;50.818;6.972;2023-06-10T02:09:53;15.90;99.90
15636;DHT22;7917;50.818;6.972;2023-06-10T02:12:21;15.90;99.90
15636;DHT22;7917;50.818;6.972;2023-06-10T02:14:48;15.90;71.80
15636;DHT22;7917;50.818;6.972;2023-06-10T02:17:15;15.80;99.90
15636;DHT22;7917;50.818;6.972;2023-06-10T02:19:42;15.80;99.90
15636;DHT22;7917;50.818;6.972;2023-06-10T02:22:09;15.80;1.00
15636;DHT22;7917;50.818;6.972;2023-06-10T02:24:36;15.80;99.90
15636;DHT22;7917;50.818;6.972;2023-06-10T02:27:04;15.80;99.90
15636;DHT22;7917;50.818;6.972;2023-06-10T02:29:34;15.80;99.90
15636;DHT22;7917;50.818;6.972;2023-06-10T02:32:02;15.80;1.00
15636;DHT22;7917;50.818;6.972;2023-06-10T02:34:32;15.70;1.00
15636;DHT22;7917;50.818;6.972;2023-06-10T02:37:00;15.70;1.00
15636;DHT22;7917;50.818;6.972;2023-06-10T02:39:28;15.70;99.90
15636;DHT22;7917;50.818;6.972;2023-06-10T02:41:55;15.70;1.00
15636;DHT22;7917;50.818;6.972;2023-06-10T02:44:22;15.60;1.00
15636;DHT22;7917;50.818;6.972;2023-06-10T02:46:49;15.60;1.00
15636;DHT22;7917;50.818;6.972;2023-06-10T02:49:16;15.50;85.70
15636;DHT22;7917;50.818;6.972;2023-06-10T02:51:43;15.40;1.00
15636;DHT22;7917;50.818;6.972;2023-06-10T02:54:10;15.40;99.90
15636;DHT22;7917;50.818;6.972;2023-06-10T02:56:37;15.30;99.90
15636;DHT22;7917;50.818;6.972;2023-06-10T02:59:07;15.30;1.00
15636;DHT22;7917;50.818;6.972;2023-06-10T03:01:34;15.20;99.90
15636;DHT22;7917;50.818;6.972;2023-06-10T03:04:04;15.20;99.90
15636;DHT22;7917;50.818;6.972;2023-06-10T03:06:30;15.20;99.90
15636;DHT22;7917;50.818;6.972;2023-06-10T03:09:00;15.20;1.00
15636;DHT22;7917;50.818;6.972;2023-06-10T03:11:26;15.20;1.00
15636;DHT22;7917;50.818;6.972;2023-06-10T03:13:53;15.10;1.00
15636;DHT22;7917;50.818;6.972;2023-06-10T03:16:21;15.10;1.00
15636;DHT22;7917;50.818;6.972;2023-06-10T03:18:49;15.10;1.00
15636;DHT22;7917;50.818;6.972;2023-06-10T03:21:16;15.20;1.00
15636;DHT22;7917;50.818;6.972;2023-06-10T03:23:43;15.20;1.00
15636;DHT22;7917;50.818;6.972;2023-06-10T03:26:11;15.10;1.00
15636;DHT22;7917;50.818;6.972;2023-06-10T03:28:39;15.10;1.00
15636;DHT22;7917;50.818;6.972;2023-06-10T03:31:06;15.10;1.00
15636;DHT22;7917;50.818;6.972;2023-06-10T03:33:32;15.10;99.90
15636;DHT22;7917;50.818;6.972;2023-06-10T03:36:00;15.10;99.90
15636;DHT22;7917;50.818;6.972;2023-06-10T03:38:27;15.10;99.90
15636;DHT22;7917;50.818;6.972;2023-06-10T03:40:54;15.10;99.90
15636;DHT22;7917;50.818;6.972;2023-06-10T03:43:21;15.10;1.00
15636;DHT22;7917;50.818;6.972;2023-06-10T03:45:48;15.10;33.10
15636;DHT22;7917;50.818;6.972;2023-06-10T03:48:15;15.20;1.00
15636;DHT22;7917;50.818;6.972;2023-06-10T03:50:42;15.20;1.00
15636;DHT22;7917;50.818;6.972;2023-06-10T03:53:09;15.20;1.00
15636;DHT22;7917;50.818;6.972;2023-06-10T03:55:37;15.30;1.00
15636;DHT22;7917;50.818;6.972;2023-06-10T03:58:04;15.30;1.00
15636;DHT22;7917;50.818;6.972;2023-06-10T04:00:30;15.30;1.00
15636;DHT22;7917;50.818;6.972;2023-06-10T04:02:59;15.40;99.90
15636;DHT22;7917;50.818;6.972;2023-06-10T04:05:26;15.40;29.80
15636;DHT22;7917;50.818;6.972;2023-06-10T04:07:54;15.50;1.00
15636;DHT22;7917;50.818;6.972;2023-06-10T04:10:21;15.60;99.90
15636;DHT22;7917;50.818;6.972;2023-06-10T04:12:49;15.60;99.90
15636;DHT22;7917;50.818;6.972;2023-06-10T04:15:15;15.70;64.90
15636;DHT22;7917;50.818;6.972;2023-06-10T04:17:42;15.80;99.90
15636;DHT22;7917;50.818;6.972;2023-06-10T04:20:09;15.80;1.00
15636;DHT22;7917;50.818;6.972;2023-06-10T04:22:36;15.90;1.00
15636;DHT22;7917;50.818;6.972;2023-06-10T04:25:03;16.00;12.00
15636;DHT22;7917;50.818;6.972;2023-06-10T04:27:30;16.10;1.00
15636;DHT22;7917;50.818;6.972;2023-06-10T04:29:58;16.20;99.90
15636;DHT22;7917;50.818;6.972;2023-06-10T04:32:24;16.30;1.00
15636;DHT22;7917;50.818;6.972;2023-06-10T04:34:52;16.40;99.90
15636;DHT22;7917;50.818;6.972;2023-06-10T04:37:19;16.50;99.90
15636;DHT22;7917;50.818;6.972;2023-06-10T04:39:46;16.70;1.00
15636;DHT22;7917;50.818;6.972;2023-06-10T04:42:13;16.80;1.00
15636;DHT22;7917;50.818;6.972;2023-06-10T04:44:40;16.90;99.90
15636;DHT22;7917;50.818;6.972;2023-06-10T04:47:07;17.10;99.90
15636;DHT22;7917;50.818;6.972;2023-06-10T04:49:35;17.20;1.00
15636;DHT22;7917;50.818;6.972;2023-06-10T04:52:02;17.30;1.00
15636;DHT22;7917;50.818;6.972;2023-06-10T04:54:30;17.50;1.00
15636;DHT22;7917;50.818;6.972;2023-06-10T04:56:58;17.70;99.90
15636;DHT22;7917;50.818;6.972;2023-06-10T04:59:26;18.00;1.00
15636;DHT22;7917;50.818;6.972;2023-06-10T05:01:55;18.20;1.00
15636;DHT22;7917;50.818;6.972;2023-06-10T05:04:23;18.40;1.00
15636;DHT22;7917;50.818;6.972;2023-06-10T05:06:50;18.60;1.00
15636;DHT22;7917;50.818;6.972;2023-06-10T05:09:16;18.80;1.00
15636;DHT22;7917;50.818;6.972;2023-06-10T05:11:43;18.90;1.00
15636;DHT22;7917;50.818;6.972;2023-06-10T05:14:10;19.10;1.00
15636;DHT22;7917;50.818;6.972;2023-06-10T05:16:37;19.20;1.00
15636;DHT22;7917;50.818;6.972;2023-06-10T05:19:04;19.40;1.00
15636;DHT22;7917;50.818;6.972;2023-06-10T05:21:32;19.60;1.00
15636;DHT22;7917;50.818;6.972;2023-06-10T05:23:59;19.70;99.90
15636;DHT22;7917;50.818;6.972;2023-06-10T05:26:25;19.90;99.90
15636;DHT22;7917;50.818;6.972;2023-06-10T05:28:52;20.00;1.00
15636;DHT22;7917;50.818;6.972;2023-06-10T05:31:19;20.20;99.90
15636;DHT22;7917;50.818;6.972;2023-06-10T05:33:46;20.40;99.90
15636;DHT22;7917;50.818;6.972;2023-06-10T05:36:13;20.40;99.90
15636;DHT22;7917;50.818;6.972;2023-06-10T05:38:40;20.60;99.90
15636;DHT22;7917;50.818;6.972;2023-06-10T05:41:07;20.80;99.90
15636;DHT22;7917;50.818;6.972;2023-06-10T05:43:34;20.80;99.90
15636;DHT22;7917;50.818;6.972;2023-06-10T05:46:01;20.90;99.90
15636;DHT22;7917;50.818;6.972;2023-06-10T05:48:27;21.10;99.90
15636;DHT22;7917;50.818;6.972;2023-06-10T05:50:54;21.20;99.90
15636;DHT22;7917;50.818;6.972;2023-06-10T05:53:21;21.30;99.90
15636;DHT22;7917;50.818;6.972;2023-06-10T05:55:48;21.30;99.90
15636;DHT22;7917;50.818;6.972;2023-06-10T05:58:16;21.40;99.90
15636;DHT22;7917;50.818;6.972;2023-06-10T06:00:42;21.60;99.90
15636;DHT22;7917;50.818;6.972;2023-06-10T06:03:10;21.80;99.90
15636;DHT22;7917;50.818;6.972;2023-06-10T06:05:37;21.90;99.90
15636;DHT22;7917;50.818;6.972;2023-06-10T06:08:04;22.00;99.90
15636;DHT22;7917;50.818;6.972;2023-06-10T06:10:31;22.10;99.90
15636;DHT22;7917;50.818;6.972;2023-06-10T06:12:59;22.30;99.90
15636;DHT22;7917;50.818;6.972;2023-06-10T06:15:29;22.30;99.90
15636;DHT22;7917;50.818;6.972;2023-06-10T06:17:56;22.40;99.90
15636;DHT22;7917;50.818;6.972;2023-06-10T06:20:23;22.60;99.90
15636;DHT22;7917;50.818;6.972;2023-06-10T06:22:53;22.70;99.90
15636;DHT22;7917;50.818;6.972;2023-06-10T06:25:20;22.90;99.90
15636;DHT22;7917;50.818;6.972;2023-06-10T06:27:46;23.00;99.90
15636;DHT22;7917;50.818;6.972;2023-06-10T06:30:14;23.00;99.90
15636;DHT22;7917;50.818;6.972;2023-06-10T06:32:41;23.00;99.90
15636;DHT22;7917;50.818;6.972;2023-06-10T06:35:08;23.00;99.90
15636;DHT22;7917;50.818;6.972;2023-06-10T06:37:35;23.20;99.90
15636;DHT22;7917;50.818;6.972;2023-06-10T06:40:03;23.20;99.90
15636;DHT22;7917;50.818;6.972;2023-06-10T06:42:30;23.40;99.90
15636;DHT22;7917;50.818;6.972;2023-06-10T06:44:57;23.50;99.90
15636;DHT22;7917;50.818;6.972;2023-06-10T06:47:25;23.60;99.90
15636;DHT22;7917;50.818;6.972;2023-06-10T06:49:53;23.80;99.90
15636;DHT22;7917;50.818;6.972;2023-06-10T06:52:19;23.80;99.90
15636;DHT22;7917;50.818;6.972;2023-06-10T06:54:48;23.80;99.90
15636;DHT22;7917;50.818;6.972;2023-06-10T06:57:15;23.90;99.90
15636;DHT22;7917;50.818;6.972;2023-06-10T06:59:42;24.10;99.90
15636;DHT22;7917;50.818;6.972;2023-06-10T07:02:09;24.20;99.90
15636;DHT22;7917;50.818;6.972;2023-06-10T07:04:37;24.30;99.90
15636;DHT22;7917;50.818;6.972;2023-06-10T07:07:06;24.30;99.90
15636;DHT22;7917;50.818;6.972;2023-06-10T07:09:33;24.50;99.90
15636;DHT22;7917;50.818;6.972;2023-06-10T07:12:01;24.50;99.90
15636;DHT22;7917;50.818;6.972;2023-06-10T07:14:34;24.60;99.90
15636;DHT22;7917;50.818;6.972;2023-06-10T07:17:01;24.60;99.90
15636;DHT22;7917;50.818;6.972;2023-06-10T07:19:28;24.70;99.90
15636;DHT22;7917;50.818;6.972;2023-06-10T07:21:56;24.90;99.90
15636;DHT22;7917;50.818;6.972;2023-06-10T07:24:23;25.00;99.90
15636;DHT22;7917;50.818;6.972;2023-06-10T07:26:51;25.10;99.90
15636;DHT22;7917;50.818;6.972;2023-06-10T07:29:18;25.20;99.90
15636;DHT22;7917;50.818;6.972;2023-06-10T07:31:45;25.40;99.90
15636;DHT22;7917;50.818;6.972;2023-06-10T07:34:12;25.50;99.90
15636;DHT22;7917;50.818;6.972;2023-06-10T07:36:39;25.70;99.90
15636;DHT22;7917;50.818;6.972;2023-06-10T07:39:07;25.80;99.90
15636;DHT22;7917;50.818;6.972;2023-06-10T07:41:34;25.90;99.90
15636;DHT22;7917;50.818;6.972;2023-06-10T07:44:01;25.90;99.90
15636;DHT22;7917;50.818;6.972;2023-06-10T07:46:28;26.10;99.90
15636;DHT22;7917;50.818;6.972;2023-06-10T07:48:56;26.30;99.90
15636;DHT22;7917;50.818;6.972;2023-06-10T07:51:26;26.40;99.90
15636;DHT22;7917;50.818;6.972;2023-06-10T07:53:53;26.40;99.90
15636;DHT22;7917;50.818;6.972;2023-06-10T07:56:21;26.40;99.90
15636;DHT22;7917;50.818;6.972;2023-06-10T07:58:51;26.40;99.90
15636;DHT22;7917;50.818;6.972;2023-06-10T08:01:18;26.50;99.90
15636;DHT22;7917;50.818;6.972;2023-06-10T08:03:44;26.70;99.90
15636;DHT22;7917;50.818;6.972;2023-06-10T08:06:11;26.90;99.90
15636;DHT22;7917;50.818;6.972;2023-06-10T08:08:38;26.90;99.90
15636;DHT22;7917;50.818;6.972;2023-06-10T08:11:08;27.20;99.90
15636;DHT22;7917;50.818;6.972;2023-06-10T08:13:36;27.40;99.90
15636;DHT22;7917;50.818;6.972;2023-06-10T08:16:04;27.30;99.90
15636;DHT22;7917;50.818;6.972;2023-06-10T08:18:31;27.40;99.90
15636;DHT22;7917;50.818;6.972;2023-06-10T08:21:01;27.50;99.90
15636;DHT22;7917;50.818;6.972;2023-06-10T08:23:27;27.60;99.90
15636;DHT22;7917;50.818;6.972;2023-06-10T08:25:55;27.80;99.90
15636;DHT22;7917;50.818;6.972;2023-06-10T08:28:22;27.90;99.90
15636;DHT22;7917;50.818;6.972;2023-06-10T08:30:49;28.10;99.90
15636;DHT22;7917;50.818;6.972;2023-06-10T08:33:17;28.20;99.90
15636;DHT22;7917;50.818;6.972;2023-06-10T08:35:44;28.20;99.90
15636;DHT22;7917;50.818;6.972;2023-06-10T08:38:10;28.10;99.90
15636;DHT22;7917;50.818;6.972;2023-06-10T08:40:38;28.00;99.90
15636;DHT22;7917;50.818;6.972;2023-06-10T08:43:06;28.30;99.90
15636;DHT22;7917;50.818;6.972;2023-06-10T08:45:35;28.50;99.90
15636;DHT22;7917;50.818;6.972;2023-06-10T08:48:04;28.60;99.90
15636;DHT22;7917;50.818;6.972;2023-06-10T08:50:34;28.20;99.90
15636;DHT22;7917;50.818;6.972;2023-06-10T08:53:02;28.10;99.90
15636;DHT22;7917;50.818;6.972;2023-06-10T08:55:32;28.00;99.90
15636;DHT22;7917;50.818;6.972;2023-06-10T08:58:00;28.10;99.90
15636;DHT22;7917;50.818;6.972;2023-06-10T09:00:28;28.50;99.90
15636;DHT22;7917;50.818;6.972;2023-06-10T09:02:57;28.70;99.90
15636;DHT22;7917;50.818;6.972;2023-06-10T09:05:25;29.00;99.90
15636;DHT22;7917;50.818;6.972;2023-06-10T09:07:53;29.10;99.90
15636;DHT22;7917;50.818;6.972;2023-06-10T09:10:22;29.30;99.90
15636;DHT22;7917;50.818;6.972;2023-06-10T09:12:52;29.30;99.90
15636;DHT22;7917;50.818;6.972;2023-06-10T09:15:20;29.40;99.90
15636;DHT22;7917;50.818;6.972;2023-06-10T09:17:47;29.60;99.90
15636;DHT22;7917;50.818;6.972;2023-06-10T09:20:14;29.50;99.90
15636;DHT22;7917;50.818;6.972;2023-06-10T09:22:42;29.70;99.90
15636;DHT22;7917;50.818;6.972;2023-06-10T09:25:11;29.90;99.90
15636;DHT22;7917;50.818;6.972;2023-06-10T09:27:45;29.90;99.90
15636;DHT22;7917;50.818;6.972;2023-06-10T09:30:26;30.00;99.20
15636;DHT22;7917;50.818;6.972;2023-06-10T09:32:54;30.20;97.50
15636;DHT22;7917;50.818;6.972;2023-06-10T09:35:23;30.20;96.80
15636;DHT22;7917;50.818;6.972;2023-06-10T09:37:52;30.10;95.90
15636;DHT22;7917;50.818;6.972;2023-06-10T09:40:20;30.00;97.00
15636;DHT22;7917;50.818;6.972;2023-06-10T09:42:49;30.20;98.40
15636;DHT22;7917;50.818;6.972;2023-06-10T09:45:21;30.20;96.40
15636;DHT22;7917;50.818;6.972;2023-06-10T09:47:51;30.20;95.70
15636;DHT22;7917;50.818;6.972;2023-06-10T09:50:19;30.30;95.00
15636;DHT22;7917;50.818;6.972;2023-06-10T09:52:57;30.30;94.90
15636;DHT22;7917;50.818;6.972;2023-06-10T09:55:24;30.30;95.10
15636;DHT22;7917;50.818;6.972;2023-06-10T09:57:53;30.40;93.70
15636;DHT22;7917;50.818;6.972;2023-06-10T10:00:22;30.50;92.50
15636;DHT22;7917;50.818;6.972;2023-06-10T10:02:50;30.50;92.60
15636;DHT22;7917;50.818;6.972;2023-06-10T10:05:18;30.60;93.20
15636;DHT22;7917;50.818;6.972;2023-06-10T10:07:46;30.50;91.70
15636;DHT22;7917;50.818;6.972;2023-06-10T10:10:15;30.60;92.10
15636;DHT22;7917;50.818;6.972;2023-06-10T10:12:42;30.50;93.00
15636;DHT22;7917;50.818;6.972;2023-06-10T10:15:11;30.80;92.80
15636;DHT22;7917;50.818;6.972;2023-06-10T10:17:40;31.00;91.70
15636;DHT22;7917;50.818;6.972;2023-06-10T10:20:12;31.10;89.50
15636;DHT22;7917;50.818;6.972;2023-06-10T10:22:43;31.20;82.20
15636;DHT22;7917;50.818;6.972;2023-06-10T10:25:17;31.40;82.30
15636;DHT22;7917;50.818;6.972;2023-06-10T10:27:52;31.40;81.30
15636;DHT22;7917;50.818;6.972;2023-06-10T10:30:22;31.60;78.70
15636;DHT22;7917;50.818;6.972;2023-06-10T10:32:57;31.70;78.80
15636;DHT22;7917;50.818;6.972;2023-06-10T10:35:25;31.60;77.00
15636;DHT22;7917;50.818;6.972;2023-06-10T10:37:53;31.20;82.20
15636;DHT22;7917;50.818;6.972;2023-06-10T10:40:22;31.20;81.10
15636;DHT22;7917;50.818;6.972;2023-06-10T10:42:51;31.50;79.50
15636;DHT22;7917;50.818;6.972;2023-06-10T10:45:19;31.70;79.10
15636;DHT22;7917;50.818;6.972;2023-06-10T10:47:52;31.70;77.00
15636;DHT22;7917;50.818;6.972;2023-06-10T10:50:20;31.80;76.70
15636;DHT22;7917;50.818;6.972;2023-06-10T10:52:53;32.00;71.80
15636;DHT22;7917;50.818;6.972;2023-06-10T10:55:21;32.10;73.40
15636;DHT22;7917;50.818;6.972;2023-06-10T10:57:56;32.20;68.70
15636;DHT22;7917;50.818;6.972;2023-06-10T11:00:28;32.40;68.30
15636;DHT22;7917;50.818;6.972;2023-06-10T11:02:59;32.50;65.00
15636;DHT22;7917;50.818;6.972;2023-06-10T11:05:37;32.50;63.60
15636;DHT22;7917;50.818;6.972;2023-06-10T11:08:05;32.70;85.20
15636;DHT22;7917;50.818;6.972;2023-06-10T11:10:33;32.80;59.30
15636;DHT22;7917;50.818;6.972;2023-06-10T11:13:05;32.50;61.10
15636;DHT22;7917;50.818;6.972;2023-06-10T11:15:40;32.50;61.70
15636;DHT22;7917;50.818;6.972;2023-06-10T11:18:20;32.50;59.10
15636;DHT22;7917;50.818;6.972;2023-06-10T11:21:00;32.60;61.40
15636;DHT22;7917;50.818;6.972;2023-06-10T11:23:43;32.80;57.30
15636;DHT22;7917;50.818;6.972;2023-06-10T11:26:30;33.10;55.80
15636;DHT22;7917;50.818;6.972;2023-06-10T11:29:07;32.90;54.60
15636;DHT22;7917;50.818;6.972;2023-06-10T11:31:40;32.50;58.10
15636;DHT22;7917;50.818;6.972;2023-06-10T11:34:07;32.70;57.30
15636;DHT22;7917;50.818;6.972;2023-06-10T11:36:37;32.60;59.20
15636;DHT22;7917;50.818;6.972;2023-06-10T11:39:06;32.70;57.80
15636;DHT22;7917;50.818;6.972;2023-06-10T11:41:35;32.80;58.10
15636;DHT22;7917;50.818;6.972;2023-06-10T11:44:10;32.90;59.00
15636;DHT22;7917;50.818;6.972;2023-06-10T11:46:37;32.90;64.70
15636;DHT22;7917;50.818;6.972;2023-06-10T11:49:05;33.20;55.80
15636;DHT22;7917;50.818;6.972;2023-06-10T11:51:34;33.30;55.10
15636;DHT22;7917;50.818;6.972;2023-06-10T11:54:01;33.40;53.70
15636;DHT22;7917;50.818;6.972;2023-06-10T11:56:29;33.00;57.70
15636;DHT22;7917;50.818;6.972;2023-06-10T11:58:58;32.90;59.10
15636;DHT22;7917;50.818;6.972;2023-06-10T12:01:30;33.00;56.50
15636;DHT22;7917;50.818;6.972;2023-06-10T12:03:58;33.20;56.00
15636;DHT22;7917;50.818;6.972;2023-06-10T12:06:25;33.40;54.60
15636;DHT22;7917;50.818;6.972;2023-06-10T12:08:54;33.50;51.40
15636;DHT22;7917;50.818;6.972;2023-06-10T12:11:22;33.30;53.70
15636;DHT22;7917;50.818;6.972;2023-06-10T12:13:49;33.70;49.40
15636;DHT22;7917;50.818;6.972;2023-06-10T12:16:20;33.70;51.30
15636;DHT22;7917;50.818;6.972;2023-06-10T12:18:47;33.90;48.40
15636;DHT22;7917;50.818;6.972;2023-06-10T12:21:19;33.70;74.40
15636;DHT22;7917;50.818;6.972;2023-06-10T12:24:16;33.40;51.60
15636;DHT22;7917;50.818;6.972;2023-06-10T12:26:47;33.30;54.00
15636;DHT22;7917;50.818;6.972;2023-06-10T12:29:18;33.50;55.10
15636;DHT22;7917;50.818;6.972;2023-06-10T12:31:57;33.70;51.50
15636;DHT22;7917;50.818;6.972;2023-06-10T12:34:35;33.70;50.50
15636;DHT22;7917;50.818;6.972;2023-06-10T12:37:04;33.90;50.90
15636;DHT22;7917;50.818;6.972;2023-06-10T12:39:32;34.00;49.20
15636;DHT22;7917;50.818;6.972;2023-06-10T12:42:01;34.10;49.40
15636;DHT22;7917;50.818;6.972;2023-06-10T12:44:30;34.00;48.90
15636;DHT22;7917;50.818;6.972;2023-06-10T12:46:58;33.50;52.60
15636;DHT22;7917;50.818;6.972;2023-06-10T12:49:25;33.00;58.10
15636;DHT22;7917;50.818;6.972;2023-06-10T12:51:53;32.40;64.50
15636;DHT22;7917;50.818;6.972;2023-06-10T12:54:20;32.10;72.50
15636;DHT22;7917;50.818;6.972;2023-06-10T12:56:47;32.30;71.60
15636;DHT22;7917;50.818;6.972;2023-06-10T12:59:14;32.40;69.40
15636;DHT22;7917;50.818;6.972;2023-06-10T13:01:42;32.60;67.10
15636;DHT22;7917;50.818;6.972;2023-06-10T13:04:10;32.70;64.90
15636;DHT22;7917;50.818;6.972;2023-06-10T13:06:38;32.20;72.20
15636;DHT22;7917;50.818;6.972;2023-06-10T13:09:08;32.20;73.70
15636;DHT22;7917;50.818;6.972;2023-06-10T13:11:36;32.30;71.20
15636;DHT22;7917;50.818;6.972;2023-06-10T13:14:04;32.40;72.20
15636;DHT22;7917;50.818;6.972;2023-06-10T13:16:32;32.10;75.20
15636;DHT22;7917;50.818;6.972;2023-06-10T13:18:59;32.00;77.20
15636;DHT22;7917;50.818;6.972;2023-06-10T13:21:29;32.10;76.40
15636;DHT22;7917;50.818;6.972;2023-06-10T13:23:56;32.50;73.40
15636;DHT22;7917;50.818;6.972;2023-06-10T13:26:23;32.80;70.00
15636;DHT22;7917;50.818;6.972;2023-06-10T13:28:50;33.00;68.20
15636;DHT22;7917;50.818;6.972;2023-06-10T13:31:26;33.30;66.30
15636;DHT22;7917;50.818;6.972;2023-06-10T13:33:53;33.50;67.90
15636;DHT22;7917;50.818;6.972;2023-06-10T13:36:30;33.80;60.60
15636;DHT22;7917;50.818;6.972;2023-06-10T13:38:57;33.80;62.30
15636;DHT22;7917;50.818;6.972;2023-06-10T13:41:25;33.70;60.00
15636;DHT22;7917;50.818;6.972;2023-06-10T13:43:53;33.60;64.00
15636;DHT22;7917;50.818;6.972;2023-06-10T13:46:20;33.60;66.70
15636;DHT22;7917;50.818;6.972;2023-06-10T13:48:48;33.60;65.70
15636;DHT22;7917;50.818;6.972;2023-06-10T13:51:15;33.60;65.10
15636;DHT22;7917;50.818;6.972;2023-06-10T13:53:43;33.80;64.80
15636;DHT22;7917;50.818;6.972;2023-06-10T13:56:11;34.00;62.20
15636;DHT22;7917;50.818;6.972;2023-06-10T13:58:39;34.00;64.70
15636;DHT22;7917;50.818;6.972;2023-06-10T14:01:07;34.10;63.00
15636;DHT22;7917;50.818;6.972;2023-06-10T14:03:35;34.10;63.40
15636;DHT22;7917;50.818;6.972;2023-06-10T14:06:03;34.00;64.20
15636;DHT22;7917;50.818;6.972;2023-06-10T14:08:30;34.10;65.10
15636;DHT22;7917;50.818;6.972;2023-06-10T14:10:58;34.30;63.30
15636;DHT22;7917;50.818;6.972;2023-06-10T14:13:25;33.90;70.40
15636;DHT22;7917;50.818;6.972;2023-06-10T14:15:52;34.00;68.60
15636;DHT22;7917;50.818;6.972;2023-06-10T14:18:19;34.50;64.50
15636;DHT22;7917;50.818;6.972;2023-06-10T14:20:46;35.10;58.00
15636;DHT22;7917;50.818;6.972;2023-06-10T14:23:13;35.60;54.60
15636;DHT22;7917;50.818;6.972;2023-06-10T14:25:43;35.90;52.10
15636;DHT22;7917;50.818;6.972;2023-06-10T14:28:11;36.70;48.00
15636;DHT22;7917;50.818;6.972;2023-06-10T14:30:38;37.20;46.60
15636;DHT22;7917;50.818;6.972;2023-06-10T14:33:05;37.60;48.90
15636;DHT22;7917;50.818;6.972;2023-06-10T14:35:41;37.20;51.90
15636;DHT22;7917;50.818;6.972;2023-06-10T14:38:09;37.20;53.50
15636;DHT22;7917;50.818;6.972;2023-06-10T14:40:36;37.30;54.80
15636;DHT22;7917;50.818;6.972;2023-06-10T14:43:03;37.50;53.10
15636;DHT22;7917;50.818;6.972;2023-06-10T14:45:36;37.30;57.20
15636;DHT22;7917;50.818;6.972;2023-06-10T14:48:04;36.50;64.80
15636;DHT22;7917;50.818;6.972;2023-06-10T14:50:31;35.50;74.90
15636;DHT22;7917;50.818;6.972;2023-06-10T14:52:58;34.80;83.60
15636;DHT22;7917;50.818;6.972;2023-06-10T14:55:25;33.60;93.80
15636;DHT22;7917;50.818;6.972;2023-06-10T14:57:52;32.40;99.90
15636;DHT22;7917;50.818;6.972;2023-06-10T15:00:19;31.60;99.90
15636;DHT22;7917;50.818;6.972;2023-06-10T15:02:50;31.20;99.90
15636;DHT22;7917;50.818;6.972;2023-06-10T15:05:18;31.20;99.90
15636;DHT22;7917;50.818;6.972;2023-06-10T15:07:46;32.80;99.90
15636;DHT22;7917;50.818;6.972;2023-06-10T15:10:13;34.60;99.90
15636;DHT22;7917;50.818;6.972;2023-06-10T15:12:40;35.90;98.00
15636;DHT22;7917;50.818;6.972;2023-06-10T15:15:07;36.50;96.90
15636;DHT22;7917;50.818;6.972;2023-06-10T15:17:34;37.60;99.90
15636;DHT22;7917;50.818;6.972;2023-06-10T15:20:03;38.60;93.30
15636;DHT22;7917;50.818;6.972;2023-06-10T15:22:33;38.60;99.90
15636;DHT22;7917;50.818;6.972;2023-06-10T15:25:00;38.80;98.50
15636;DHT22;7917;50.818;6.972;2023-06-10T15:27:27;39.20;99.90
15636;DHT22;7917;50.818;6.972;2023-06-10T15:29:54;39.00;99.90
15636;DHT22;7917;50.818;6.972;2023-06-10T15:32:21;38.50;99.90
15636;DHT22;7917;50.818;6.972;2023-06-10T15:34:48;38.40;99.90
15636;DHT22;7917;50.818;6.972;2023-06-10T15:37:17;37.90;99.90
15636;DHT22;7917;50.818;6.972;2023-06-10T15:39:45;37.20;99.90
15636;DHT22;7917;50.818;6.972;2023-06-10T15:42:12;37.60;99.90
15636;DHT22;7917;50.818;6.972;2023-06-10T15:44:40;38.30;99.90
15636;DHT22;7917;50.818;6.972;2023-06-10T15:47:08;38.40;99.90
15636;DHT22;7917;50.818;6.972;2023-06-10T15:49:53;38.30;99.90
15636;DHT22;7917;50.818;6.972;2023-06-10T15:52:21;36.50;99.90
15636;DHT22;7917;50.818;6.972;2023-06-10T15:54:48;34.80;99.90
15636;DHT22;7917;50.818;6.972;2023-06-10T15:57:16;34.80;99.90